Terminal Aerodrome Forecast
Issued by NWS St Louis, MO

Home | Current Version | Previous Version | Graphics & Text | Print | Product List | Glossary On
Versions: 1 2 3 4 5 6 7 8 9 10 11 12 13 14 15 16 17 18 19 20 21 22 23 24 25 26 27 28
000
FTUS43 KLSX 181700
TAFSTL
TAF
KSTL 181735Z 1818/1924 13008KT P6SM SCT045 BKN200
     FM190900 08005KT 5SM -RA BR OVC040
     FM191300 36006KT 3SM -RA BR OVC030
     FM191900 30009KT P6SM VCTS BKN040CB=

USA.gov is the U.S. government's official web portal to all federal, state and local government web resources and services.